createdAt,value
2017-11-26T00:01:51.711Z,14.17
2017-11-26T00:04:19.838Z,13.57
2017-11-26T00:06:48.470Z,12.83
2017-11-26T00:09:16.508Z,12.97
2017-11-26T00:11:44.839Z,14.90
2017-11-26T00:14:13.407Z,13.90
2017-11-26T00:16:41.799Z,13.03
2017-11-26T00:19:10.123Z,12.47
2017-11-26T00:21:39.247Z,13.63
2017-11-26T00:24:07.772Z,13.80
2017-11-26T00:26:36.094Z,12.70
2017-11-26T00:29:04.470Z,12.17
2017-11-26T00:31:32.799Z,11.27
2017-11-26T00:34:01.135Z,11.67
2017-11-26T00:36:29.584Z,10.83
2017-11-26T00:38:58.674Z,11.50
2017-11-26T00:41:27.817Z,12.33
2017-11-26T00:43:56.189Z,11.07
2017-11-26T00:46:24.512Z,9.73
2017-11-26T00:48:53.038Z,9.10
2017-11-26T00:51:21.408Z,8.97
2017-11-26T00:53:50.695Z,9.17
2017-11-26T00:56:19.576Z,8.23
2017-11-26T00:58:49.237Z,9.10
2017-11-26T01:01:17.756Z,8.60
2017-11-26T01:03:46.846Z,8.50
2017-11-26T01:06:15.955Z,8.10
2017-11-26T01:08:44.291Z,6.63
2017-11-26T01:11:12.643Z,5.67
2017-11-26T01:13:40.963Z,6.03
2017-11-26T01:16:10.047Z,6.03
2017-11-26T01:18:38.400Z,6.00
2017-11-26T01:21:06.720Z,5.93
2017-11-26T01:23:35.809Z,6.57
2017-11-26T01:26:04.591Z,5.83
2017-11-26T01:28:33.953Z,6.87
2017-11-26T01:31:02.291Z,6.37
2017-11-26T01:33:30.610Z,7.10
2017-11-26T01:35:58.968Z,7.53
2017-11-26T01:38:28.079Z,6.63
2017-11-26T01:40:56.401Z,6.07
2017-11-26T01:43:25.728Z,6.60
2017-11-26T01:45:54.043Z,6.23
2017-11-26T01:48:22.368Z,7.23
2017-11-26T01:50:50.735Z,9.70
2017-11-26T01:53:19.965Z,10.13
2017-11-26T01:55:48.447Z,8.83
2017-11-26T01:58:16.600Z,12.87
2017-11-26T02:00:44.104Z,11.30
2017-11-26T02:03:12.444Z,10.93
2017-11-26T02:05:40.579Z,13.30
2017-11-26T02:08:09.714Z,12.37
2017-11-26T02:10:38.281Z,10.40
2017-11-26T02:13:06.613Z,10.30
2017-11-26T02:15:35.128Z,7.57
2017-11-26T02:18:03.163Z,9.03
2017-11-26T02:20:31.148Z,8.33
2017-11-26T02:22:59.576Z,9.03
2017-11-26T02:25:27.276Z,7.83
2017-11-26T02:27:54.937Z,9.87
2017-11-26T02:30:22.948Z,8.13
2017-11-26T02:33:02.727Z,8.03
2017-11-26T02:38:32.627Z,11.17
2017-11-26T02:41:00.291Z,10.93
2017-11-26T02:43:28.614Z,10.77
2017-11-26T02:45:56.846Z,11.00
2017-11-26T02:48:25.227Z,11.70
2017-11-26T02:50:53.220Z,14.57
2017-11-26T02:53:21.575Z,13.57
2017-11-26T02:55:49.907Z,10.20
2017-11-26T02:58:17.571Z,8.83
2017-11-26T03:00:45.604Z,7.20
2017-11-26T03:03:13.957Z,8.20
2017-11-26T03:05:42.386Z,7.10
2017-11-26T03:08:11.517Z,6.60
2017-11-26T03:10:39.838Z,6.93
2017-11-26T03:13:08.405Z,8.63
2017-11-26T03:15:36.271Z,8.47
2017-11-26T03:18:04.259Z,8.20
2017-11-26T03:20:33.049Z,7.30
2017-11-26T03:23:02.145Z,6.90
2017-11-26T03:25:31.227Z,8.20
2017-11-26T03:27:59.072Z,8.10
2017-11-26T03:30:26.885Z,8.43
2017-11-26T03:32:55.034Z,8.20
2017-11-26T03:35:23.980Z,8.33
2017-11-26T03:37:52.308Z,8.10
2017-11-26T03:40:21.207Z,8.20
2017-11-26T03:42:49.377Z,8.00
2017-11-26T03:45:18.149Z,8.73
2017-11-26T03:47:46.490Z,7.37
2017-11-26T03:50:14.707Z,8.73
2017-11-26T03:52:43.526Z,8.30
2017-11-26T03:55:11.188Z,7.70
2017-11-26T03:57:39.547Z,6.83
2017-11-26T04:00:07.213Z,7.07
2017-11-26T04:02:35.737Z,6.80
2017-11-26T04:05:04.721Z,7.30
2017-11-26T04:07:33.044Z,7.13
2017-11-26T04:10:02.328Z,7.17
2017-11-26T04:12:31.127Z,6.20
2017-11-26T04:14:59.882Z,6.40
2017-11-26T04:17:28.200Z,6.47
2017-11-26T04:19:56.232Z,6.00
2017-11-26T04:22:24.752Z,6.33
2017-11-26T04:24:53.074Z,5.63
2017-11-26T04:27:20.782Z,5.97
2017-11-26T04:29:49.102Z,5.80
2017-11-26T04:32:17.428Z,6.17
2017-11-26T04:34:46.574Z,5.60
2017-11-26T04:37:14.900Z,5.57
2017-11-26T04:39:44.036Z,5.43
2017-11-26T04:42:12.375Z,5.50
2017-11-26T04:44:40.695Z,4.77
2017-11-26T04:47:09.060Z,5.27
2017-11-26T04:49:37.781Z,5.20
2017-11-26T04:52:06.459Z,5.00
2017-11-26T04:54:34.827Z,4.90
2017-11-26T04:57:03.143Z,5.40
2017-11-26T04:59:31.729Z,5.70
2017-11-26T05:02:00.188Z,5.53
2017-11-26T05:04:27.840Z,5.70
2017-11-26T05:06:56.161Z,5.53
2017-11-26T05:09:24.518Z,5.33
2017-11-26T05:11:53.612Z,5.63
2017-11-26T05:14:22.419Z,6.27
2017-11-26T05:16:50.428Z,5.20
2017-11-26T05:19:18.755Z,5.63
2017-11-26T05:21:47.078Z,6.50
2017-11-26T05:24:15.455Z,5.90
2017-11-26T05:26:43.781Z,5.67
2017-11-26T05:29:12.221Z,5.40
2017-11-26T05:31:40.759Z,6.70
2017-11-26T05:34:09.120Z,5.57
2017-11-26T05:36:37.143Z,5.83
2017-11-26T05:39:04.808Z,5.90
2017-11-26T05:41:33.247Z,6.67
2017-11-26T05:44:01.572Z,5.97
2017-11-26T05:46:29.895Z,5.53
2017-11-26T05:48:57.911Z,5.57
2017-11-26T05:51:26.043Z,5.23
2017-11-26T05:53:54.372Z,5.10
2017-11-26T05:56:23.497Z,7.40
2017-11-26T05:58:51.900Z,6.93
2017-11-26T06:01:20.224Z,5.40
2017-11-26T06:03:49.326Z,5.00
2017-11-26T06:06:18.088Z,4.97
2017-11-26T06:08:46.417Z,5.33
2017-11-26T06:11:14.757Z,4.43
2017-11-26T06:13:44.039Z,5.10
2017-11-26T06:16:12.395Z,3.73
2017-11-26T06:18:40.758Z,4.23
2017-11-26T06:21:09.267Z,4.20
2017-11-26T06:23:38.332Z,3.30
2017-11-26T06:26:06.848Z,3.53
2017-11-26T06:28:35.174Z,3.33
2017-11-26T06:31:03.520Z,3.10
2017-11-26T06:33:32.647Z,2.90
2017-11-26T06:36:00.972Z,2.70
2017-11-26T06:38:29.295Z,3.23
2017-11-26T06:40:57.468Z,3.00
2017-11-26T06:43:25.792Z,3.23
2017-11-26T06:45:54.110Z,3.30
2017-11-26T06:48:22.480Z,2.87
2017-11-26T06:50:50.801Z,2.60
2017-11-26T06:53:19.787Z,2.93
2017-11-26T06:55:48.950Z,3.03
2017-11-26T06:58:17.268Z,2.67
2017-11-26T07:00:45.639Z,2.80
2017-11-26T07:03:13.685Z,3.10
2017-11-26T07:05:42.002Z,3.07
2017-11-26T07:08:10.357Z,3.00
2017-11-26T07:10:38.676Z,2.80
2017-11-26T07:13:07.760Z,2.50
2017-11-26T07:15:36.872Z,2.77
2017-11-26T07:18:05.191Z,3.00
2017-11-26T07:20:33.516Z,3.10
2017-11-26T07:23:02.443Z,2.60
2017-11-26T07:25:30.431Z,2.43
2017-11-26T07:27:58.759Z,3.10
2017-11-26T07:30:27.098Z,2.70
2017-11-26T07:32:55.427Z,2.57
2017-11-26T07:35:23.786Z,2.80
2017-11-26T07:37:53.075Z,2.83
2017-11-26T07:40:21.836Z,2.97
2017-11-26T07:42:50.196Z,2.60
2017-11-26T07:45:17.853Z,2.70
2017-11-26T07:47:46.283Z,2.70
2017-11-26T07:50:15.397Z,2.90
2017-11-26T07:52:53.371Z,3.23
2017-11-26T07:55:21.537Z,3.70
2017-11-26T07:57:49.859Z,3.23
2017-11-26T08:00:18.968Z,3.00
2017-11-26T08:02:47.895Z,3.30
2017-11-26T08:05:16.026Z,3.20
2017-11-26T08:07:45.127Z,3.53
2017-11-26T08:10:13.478Z,3.73
2017-11-26T08:12:41.799Z,4.13
2017-11-26T08:15:10.120Z,4.17
2017-11-26T08:17:38.468Z,3.70
2017-11-26T08:20:07.636Z,4.83
2017-11-26T08:22:35.962Z,4.73
2017-11-26T08:25:05.020Z,3.60
2017-11-26T08:27:33.346Z,4.23
2017-11-26T08:30:01.871Z,4.10
2017-11-26T08:32:30.219Z,4.47
2017-11-26T08:34:59.309Z,4.10
2017-11-26T08:37:28.621Z,3.80
2017-11-26T08:39:56.753Z,4.20
2017-11-26T08:42:24.884Z,3.70
2017-11-26T08:44:53.156Z,3.57
2017-11-26T08:47:21.483Z,3.40
2017-11-26T08:49:49.624Z,3.43
2017-11-26T08:52:17.792Z,3.23
2017-11-26T08:54:45.914Z,3.60
2017-11-26T08:57:14.812Z,3.13
2017-11-26T08:59:43.751Z,3.00
2017-11-26T09:02:11.882Z,3.27
2017-11-26T09:04:40.219Z,3.50
2017-11-26T09:07:19.405Z,3.80
2017-11-26T09:09:47.538Z,4.17
2017-11-26T09:12:16.439Z,3.50
2017-11-26T09:14:45.386Z,3.83
2017-11-26T09:17:13.387Z,3.57
2017-11-26T09:19:42.279Z,3.87
2017-11-26T09:22:12.248Z,3.53
2017-11-26T09:24:40.375Z,3.43
2017-11-26T09:27:09.539Z,4.23
2017-11-26T09:29:37.892Z,3.60
2017-11-26T09:32:06.634Z,4.83
2017-11-26T09:34:35.714Z,4.30
2017-11-26T09:37:04.066Z,4.30
2017-11-26T09:39:32.392Z,3.87
2017-11-26T09:42:01.560Z,3.67
2017-11-26T09:44:30.670Z,4.17
2017-11-26T09:46:59.988Z,4.13
2017-11-26T09:49:27.974Z,4.30
2017-11-26T09:51:56.295Z,4.07
2017-11-26T09:54:24.847Z,4.23
2017-11-26T09:56:53.167Z,3.63
2017-11-26T09:59:22.255Z,4.20
2017-11-26T10:01:52.339Z,4.50
2017-11-26T10:04:20.667Z,3.93
2017-11-26T10:06:49.033Z,3.70
2017-11-26T10:09:18.117Z,3.93
2017-11-26T10:11:48.233Z,4.13
2017-11-26T10:14:16.546Z,4.60
2017-11-26T10:16:44.866Z,4.20
2017-11-26T10:19:13.206Z,4.27
2017-11-26T10:21:42.514Z,4.10
2017-11-26T10:24:10.860Z,4.33
2017-11-26T10:26:39.179Z,3.57
2017-11-26T10:29:08.787Z,3.80
2017-11-26T10:31:37.544Z,3.50
2017-11-26T10:34:05.868Z,3.57
2017-11-26T10:36:34.407Z,3.37
2017-11-26T10:39:02.754Z,3.60
2017-11-26T10:41:31.122Z,3.10
2017-11-26T10:43:59.299Z,3.80
2017-11-26T10:46:27.731Z,5.30
2017-11-26T10:48:55.412Z,5.87
2017-11-26T10:51:23.749Z,5.00
2017-11-26T10:53:51.655Z,4.30
2017-11-26T10:56:19.646Z,3.43
2017-11-26T10:58:47.819Z,3.73
2017-11-26T11:01:16.494Z,3.87
2017-11-26T11:03:44.919Z,3.50
2017-11-26T11:06:13.608Z,3.90
2017-11-26T11:08:41.924Z,4.03
2017-11-26T11:11:09.580Z,5.20
2017-11-26T11:13:37.843Z,5.43
2017-11-26T11:16:05.522Z,8.87
2017-11-26T11:18:33.231Z,19.50
2017-11-26T11:21:00.898Z,12.03
2017-11-26T11:23:28.606Z,13.43
2017-11-26T11:25:56.651Z,11.07
2017-11-26T11:28:24.978Z,10.60
2017-11-26T11:30:53.308Z,7.33
2017-11-26T11:33:21.849Z,9.97
2017-11-26T11:35:50.172Z,9.47
2017-11-26T11:38:18.543Z,9.20
2017-11-26T11:40:46.868Z,8.07
2017-11-26T11:43:15.396Z,7.70
2017-11-26T11:45:43.743Z,10.97
2017-11-26T11:48:12.072Z,10.47
2017-11-26T11:50:40.060Z,4.97
2017-11-26T11:53:08.826Z,6.03
2017-11-26T11:55:36.635Z,5.97
2017-11-26T11:58:04.099Z,5.73
2017-11-26T12:00:31.600Z,4.63
2017-11-26T12:03:00.584Z,4.47
2017-11-26T12:05:28.575Z,4.13
2017-11-26T12:07:57.028Z,4.33
2017-11-26T12:10:24.690Z,3.93
2017-11-26T12:12:52.207Z,17.63
2017-11-26T12:15:19.872Z,6.57
2017-11-26T12:17:47.599Z,5.33
2017-11-26T12:20:16.025Z,4.87
2017-11-26T12:22:43.688Z,5.30
2017-11-26T12:25:11.704Z,5.13
2017-11-26T12:27:40.497Z,5.27
2017-11-26T12:30:08.927Z,5.50
2017-11-26T12:32:36.558Z,5.73
2017-11-26T12:35:04.068Z,6.93
2017-11-26T12:37:31.918Z,5.30
2017-11-26T12:39:59.574Z,4.60
2017-11-26T12:42:27.260Z,5.13
2017-11-26T12:44:55.267Z,5.77
2017-11-26T12:47:23.256Z,5.67
2017-11-26T12:49:51.267Z,5.20
2017-11-26T12:52:19.728Z,4.83
2017-11-26T12:54:47.382Z,5.80
2017-11-26T12:57:15.047Z,4.47
2017-11-26T12:59:42.723Z,4.67
2017-11-26T13:02:10.382Z,5.30
2017-11-26T13:04:38.430Z,5.87
2017-11-26T13:07:06.679Z,4.90
2017-11-26T13:09:34.143Z,4.73
2017-11-26T13:12:01.831Z,5.57
2017-11-26T13:14:29.488Z,5.20
2017-11-26T13:16:57.169Z,5.13
2017-11-26T13:19:25.592Z,5.40
2017-11-26T13:21:53.254Z,6.10
2017-11-26T13:24:20.951Z,5.60
2017-11-26T13:26:48.607Z,5.70
2017-11-26T13:29:16.267Z,5.70
2017-11-26T13:31:43.954Z,5.47
2017-11-26T13:34:12.376Z,6.30
2017-11-26T13:36:40.236Z,4.83
2017-11-26T13:39:08.798Z,5.47
2017-11-26T13:41:36.501Z,5.87
2017-11-26T13:44:04.191Z,6.20
2017-11-26T13:46:32.034Z,6.27
2017-11-26T13:48:59.703Z,5.53
2017-11-26T13:51:27.391Z,5.57
2017-11-26T13:53:55.820Z,6.17
2017-11-26T13:56:23.484Z,6.20
2017-11-26T13:58:51.168Z,11.20
2017-11-26T14:01:18.855Z,12.23
2017-11-26T14:03:47.289Z,7.63
2017-11-26T14:06:15.719Z,6.50
2017-11-26T14:08:44.395Z,6.20
2017-11-26T14:11:12.296Z,5.53
2017-11-26T14:13:39.956Z,5.57
2017-11-26T14:16:08.637Z,4.97
2017-11-26T14:18:36.627Z,6.10
2017-11-26T14:21:04.461Z,5.17
2017-11-26T14:23:32.120Z,4.90
2017-11-26T14:25:59.806Z,4.40
2017-11-26T14:28:27.511Z,4.90
2017-11-26T14:30:55.968Z,4.37
2017-11-26T14:33:23.655Z,4.60
2017-11-26T14:35:52.079Z,4.93
2017-11-26T14:38:19.743Z,4.50
2017-11-26T14:40:47.416Z,4.03
2017-11-26T14:43:16.042Z,4.80
2017-11-26T14:45:44.500Z,4.80
2017-11-26T14:48:12.354Z,3.97
2017-11-26T14:50:40.011Z,4.50
2017-11-26T14:53:08.487Z,4.50
2017-11-26T14:55:36.638Z,4.43
2017-11-26T14:58:04.471Z,3.90
2017-11-26T15:00:32.171Z,4.17
2017-11-26T15:02:59.840Z,3.77
2017-11-26T15:05:27.521Z,3.73
2017-11-26T15:07:55.399Z,3.90
2017-11-26T15:10:23.823Z,3.80
2017-11-26T15:12:51.655Z,4.00
2017-11-26T15:15:19.347Z,3.87
2017-11-26T15:17:47.147Z,4.60
2017-11-26T15:20:14.853Z,5.27
2017-11-26T15:22:42.515Z,5.70
2017-11-26T15:25:10.203Z,5.17
2017-11-26T15:27:38.608Z,5.50
2017-11-26T15:30:06.554Z,4.03
2017-11-26T15:32:34.243Z,4.43
2017-11-26T15:35:01.907Z,4.07
2017-11-26T15:37:29.579Z,3.90
2017-11-26T15:39:58.008Z,3.97
2017-11-26T15:42:25.706Z,3.40
2017-11-26T15:44:53.181Z,4.00
2017-11-26T15:47:21.419Z,3.90
2017-11-26T15:49:49.882Z,4.67
2017-11-26T15:52:17.687Z,4.20
2017-11-26T15:54:46.644Z,3.57
2017-11-26T15:57:14.335Z,4.17
2017-11-26T15:59:41.992Z,3.93
2017-11-26T16:02:09.770Z,4.90
2017-11-26T16:04:38.563Z,4.80
2017-11-26T16:07:07.039Z,4.60
2017-11-26T16:09:35.463Z,4.43
2017-11-26T16:12:03.262Z,4.00
2017-11-26T16:14:30.924Z,4.03
2017-11-26T16:16:59.246Z,4.00
2017-11-26T16:19:26.936Z,4.13
2017-11-26T16:21:55.695Z,4.40
2017-11-26T16:24:23.361Z,4.20
2017-11-26T16:26:51.051Z,4.57
2017-11-26T16:29:19.052Z,4.37
2017-11-26T16:31:47.477Z,4.97
2017-11-26T16:34:15.167Z,5.27
2017-11-26T16:36:43.499Z,4.63
2017-11-26T16:39:11.581Z,4.30
2017-11-26T16:41:39.268Z,3.27
2017-11-26T16:44:07.635Z,3.73
2017-11-26T16:46:37.540Z,3.17
2017-11-26T16:49:05.660Z,3.53
2017-11-26T16:51:33.179Z,3.30
2017-11-26T16:54:00.714Z,3.00
2017-11-26T16:56:28.625Z,3.90
2017-11-26T16:58:56.405Z,3.20
2017-11-26T17:01:24.868Z,3.47
2017-11-26T17:03:53.380Z,3.40
2017-11-26T17:06:22.025Z,3.70
2017-11-26T17:08:50.508Z,3.40
2017-11-26T17:11:18.171Z,3.80
2017-11-26T17:13:45.851Z,4.23
2017-11-26T17:16:14.316Z,4.70
2017-11-26T17:18:41.989Z,4.13
2017-11-26T17:21:10.624Z,4.33
2017-11-26T17:23:39.512Z,4.30
2017-11-26T17:26:09.358Z,4.37
2017-11-26T17:28:38.834Z,4.20
2017-11-26T17:31:06.536Z,4.07
2017-11-26T17:33:34.547Z,4.47
2017-11-26T17:36:02.271Z,4.43
2017-11-26T17:38:29.939Z,4.00
2017-11-26T17:40:57.979Z,3.97
2017-11-26T17:43:25.696Z,4.33
2017-11-26T17:45:53.387Z,4.20
2017-11-26T17:48:21.375Z,4.80
2017-11-26T17:50:49.399Z,4.57
2017-11-26T17:53:17.067Z,4.67
2017-11-26T17:55:45.087Z,4.83
2017-11-26T17:58:13.543Z,5.27
2017-11-26T18:00:41.216Z,5.87
2017-11-26T18:03:09.579Z,6.93
2017-11-26T18:05:38.151Z,7.17
2017-11-26T18:08:06.375Z,7.40
2017-11-26T18:10:35.162Z,7.03
2017-11-26T18:13:03.491Z,7.43
2017-11-26T18:15:31.840Z,6.47
2017-11-26T18:18:00.224Z,7.07
2017-11-26T18:20:29.348Z,5.93
2017-11-26T18:22:57.766Z,5.97
2017-11-26T18:25:25.483Z,6.00
2017-11-26T18:27:53.829Z,6.30
2017-11-26T18:30:22.309Z,5.37
2017-11-26T18:32:50.588Z,5.60
2017-11-26T18:35:19.128Z,5.60
2017-11-26T18:37:48.219Z,6.00
2017-11-26T18:40:17.337Z,5.37
2017-11-26T18:42:45.668Z,4.73
2017-11-26T18:45:14.235Z,4.90
2017-11-26T18:47:42.625Z,5.20
2017-11-26T18:50:10.958Z,5.13
2017-11-26T18:52:39.743Z,5.17
2017-11-26T18:55:08.571Z,5.03
2017-11-26T18:57:37.560Z,5.63
2017-11-26T19:00:05.932Z,5.30
2017-11-26T19:02:34.308Z,5.27
2017-11-26T19:05:02.635Z,4.80
2017-11-26T19:07:31.033Z,4.37
2017-11-26T19:09:59.396Z,4.20
2017-11-26T19:12:27.729Z,4.90
2017-11-26T19:14:55.715Z,4.43
2017-11-26T19:17:24.843Z,5.03
2017-11-26T19:19:53.256Z,4.70
2017-11-26T19:22:21.755Z,4.83
2017-11-26T19:24:50.866Z,4.73
2017-11-26T19:27:20.084Z,5.20
2017-11-26T19:29:48.422Z,4.60
2017-11-26T19:32:16.853Z,5.07
2017-11-26T19:34:45.309Z,5.37
2017-11-26T19:37:13.655Z,5.17
2017-11-26T19:39:41.715Z,4.53
2017-11-26T19:42:10.126Z,5.10
2017-11-26T19:44:39.581Z,4.70
2017-11-26T19:47:08.312Z,4.67
2017-11-26T19:49:36.852Z,5.70
2017-11-26T19:52:05.470Z,5.27
2017-11-26T19:54:34.274Z,5.90
2017-11-26T19:57:02.937Z,5.87
2017-11-26T19:59:31.503Z,6.20
2017-11-26T20:02:00.655Z,10.77
2017-11-26T20:04:29.328Z,6.33
2017-11-26T20:06:57.644Z,5.77
2017-11-26T20:09:26.794Z,5.53
2017-11-26T20:11:55.724Z,6.17
2017-11-26T20:14:24.467Z,6.20
2017-11-26T20:16:53.011Z,5.40
2017-11-26T20:19:22.225Z,5.00
2017-11-26T20:21:50.904Z,5.60
2017-11-26T20:24:20.194Z,5.73
2017-11-26T20:26:49.408Z,5.30
2017-11-26T20:29:18.645Z,5.43
2017-11-26T20:31:47.563Z,5.20
2017-11-26T20:34:16.705Z,5.20
2017-11-26T20:36:45.366Z,5.50
2017-11-26T20:39:13.978Z,14.43
2017-11-26T20:41:42.400Z,9.73
2017-11-26T20:44:11.443Z,7.30
2017-11-26T20:46:39.882Z,10.57
2017-11-26T20:49:08.595Z,7.57
2017-11-26T20:51:38.352Z,9.57
2017-11-26T20:54:06.804Z,8.53
2017-11-26T20:56:35.903Z,7.87
2017-11-26T20:59:04.309Z,6.63
2017-11-26T21:01:32.649Z,7.80
2017-11-26T21:04:01.731Z,7.87
2017-11-26T21:06:30.922Z,6.83
2017-11-26T21:09:00.023Z,8.33
2017-11-26T21:11:30.547Z,8.13
2017-11-26T21:14:16.455Z,9.23
2017-11-26T21:16:44.649Z,7.73
2017-11-26T21:19:12.782Z,7.57
2017-11-26T21:21:41.691Z,7.20
2017-11-26T21:24:09.886Z,7.87
2017-11-26T21:26:39.016Z,7.23
2017-11-26T21:31:47.936Z,8.37
2017-11-26T21:34:16.260Z,7.83
2017-11-26T21:36:45.351Z,6.83
2017-11-26T21:39:14.499Z,6.90
2017-11-26T21:41:42.820Z,6.43
2017-11-26T21:44:11.912Z,8.23
2017-11-26T21:46:41.044Z,7.17
2017-11-26T21:49:10.343Z,6.87
2017-11-26T21:51:39.380Z,6.93
2017-11-26T21:54:08.013Z,6.40
2017-11-26T21:56:36.350Z,6.73
2017-11-26T21:59:05.485Z,6.77
2017-11-26T22:01:33.816Z,7.80
2017-11-26T22:04:02.165Z,7.70
2017-11-26T22:06:30.527Z,7.20
2017-11-26T22:08:58.855Z,7.00
2017-11-26T22:11:27.819Z,6.67
2017-11-26T22:13:56.167Z,6.30
2017-11-26T22:16:24.995Z,5.97
2017-11-26T22:18:53.363Z,6.60
2017-11-26T22:21:21.723Z,5.57
2017-11-26T22:23:49.723Z,6.33
2017-11-26T22:26:18.099Z,5.73
2017-11-26T22:28:46.625Z,6.50
2017-11-26T22:31:14.951Z,6.03
2017-11-26T22:33:43.295Z,6.23
2017-11-26T22:36:11.620Z,6.27
2017-11-26T22:38:39.944Z,6.63
2017-11-26T22:41:08.296Z,5.17
2017-11-26T22:43:37.588Z,5.90
2017-11-26T22:46:06.675Z,5.40
2017-11-26T22:48:35.803Z,5.20
2017-11-26T22:51:04.131Z,5.53
2017-11-26T22:53:32.650Z,4.93
2017-11-26T22:56:01.000Z,5.30
2017-11-26T22:58:30.090Z,5.27
2017-11-26T23:00:59.175Z,5.27
2017-11-26T23:03:27.518Z,5.17
2017-11-26T23:05:55.563Z,5.00
2017-11-26T23:08:23.904Z,4.93
2017-11-26T23:10:52.431Z,5.17
2017-11-26T23:13:20.772Z,4.73
2017-11-26T23:15:49.858Z,4.83
2017-11-26T23:18:18.184Z,5.00
2017-11-26T23:20:46.543Z,5.30
2017-11-26T23:23:14.872Z,4.93
2017-11-26T23:25:43.199Z,5.37
2017-11-26T23:28:11.570Z,5.30
2017-11-26T23:30:39.896Z,5.53
2017-11-26T23:33:08.226Z,5.27
2017-11-26T23:35:36.581Z,5.40
2017-11-26T23:38:05.670Z,5.20
2017-11-26T23:40:34.764Z,5.53
2017-11-26T23:43:03.899Z,4.43
2017-11-26T23:45:32.220Z,4.87
2017-11-26T23:48:00.552Z,5.20
2017-11-26T23:50:28.907Z,5.20
2017-11-26T23:52:57.331Z,5.00
2017-11-26T23:55:25.653Z,5.93
2017-11-26T23:57:55.363Z,5.53
